createdAt,value
2023-01-08T00:02:07.175Z,8.50
2023-01-08T00:07:14.479Z,8.48
2023-01-08T00:12:21.908Z,8.48
2023-01-08T00:17:29.188Z,8.49
2023-01-08T00:22:36.085Z,8.49
2023-01-08T00:27:43.288Z,8.47
2023-01-08T00:32:50.588Z,8.48
2023-01-08T00:37:57.692Z,8.47
2023-01-08T00:43:04.781Z,8.47
2023-01-08T00:48:11.783Z,8.46
2023-01-08T00:53:18.558Z,8.47
2023-01-08T00:58:25.389Z,8.47
2023-01-08T01:03:32.923Z,8.47
2023-01-08T01:08:39.970Z,8.47
2023-01-08T01:13:46.782Z,8.47
2023-01-08T01:18:55.228Z,8.46
2023-01-08T01:24:03.178Z,8.47
2023-01-08T01:29:10.288Z,8.45
2023-01-08T01:34:17.227Z,8.46
2023-01-08T01:39:24.571Z,8.44
2023-01-08T01:44:39.633Z,8.45
2023-01-08T01:49:51.160Z,8.45
2023-01-08T01:54:59.089Z,8.45
2023-01-08T02:00:09.485Z,8.43
2023-01-08T02:05:16.257Z,8.43
2023-01-08T02:10:28.976Z,8.43
2023-01-08T02:15:40.707Z,8.44
2023-01-08T02:20:49.346Z,8.43
2023-01-08T02:26:13.037Z,8.43
2023-01-08T02:31:21.198Z,8.42
2023-01-08T02:36:30.854Z,8.41
2023-01-08T02:41:40.117Z,8.41
2023-01-08T02:46:47.058Z,8.40
2023-01-08T02:51:55.556Z,8.39
2023-01-08T02:57:04.496Z,8.40
2023-01-08T03:02:12.785Z,8.40
2023-01-08T03:07:19.939Z,8.39
2023-01-08T03:12:32.908Z,8.38
2023-01-08T03:17:41.522Z,8.39
2023-01-08T03:22:49.718Z,8.38
2023-01-08T03:27:57.485Z,8.37
2023-01-08T03:33:04.857Z,8.36
2023-01-08T03:38:16.054Z,8.36
2023-01-08T03:43:23.037Z,8.36
2023-01-08T03:48:31.167Z,8.35
2023-01-08T03:53:38.191Z,8.36
2023-01-08T03:58:45.480Z,8.35
2023-01-08T04:03:52.356Z,8.34
2023-01-08T04:08:59.575Z,8.34
2023-01-08T04:14:06.549Z,8.33
2023-01-08T04:19:14.685Z,8.33
2023-01-08T04:24:21.768Z,8.33
2023-01-08T04:29:28.697Z,8.33
2023-01-08T04:34:35.790Z,8.32
2023-01-08T04:39:42.588Z,8.32
2023-01-08T04:44:49.677Z,8.31
2023-01-08T04:49:56.749Z,8.31
2023-01-08T04:55:04.185Z,8.31
2023-01-08T05:00:11.998Z,8.31
2023-01-08T05:05:19.207Z,8.31
2023-01-08T05:10:26.173Z,8.31
2023-01-08T05:15:33.298Z,8.30
2023-01-08T05:20:40.177Z,8.30
2023-01-08T05:25:47.009Z,8.29
2023-01-08T05:30:54.529Z,8.28
2023-01-08T05:36:01.699Z,8.28
2023-01-08T05:41:08.920Z,8.28
2023-01-08T05:46:15.937Z,8.27
2023-01-08T05:51:23.175Z,8.27
2023-01-08T05:56:30.228Z,8.27
2023-01-08T06:01:37.427Z,8.27
2023-01-08T06:06:44.949Z,8.26
2023-01-08T06:11:53.491Z,8.25
2023-01-08T06:17:00.547Z,8.25
2023-01-08T06:22:07.428Z,8.25
2023-01-08T06:27:14.636Z,8.24
2023-01-08T06:32:21.628Z,8.25
2023-01-08T06:37:28.636Z,8.24
2023-01-08T06:42:35.578Z,8.24
2023-01-08T06:47:42.510Z,8.24
2023-01-08T06:52:55.749Z,8.24
2023-01-08T06:58:02.424Z,8.25
2023-01-08T07:03:09.686Z,8.24
2023-01-08T07:08:17.417Z,8.23
2023-01-08T07:13:25.348Z,8.23
2023-01-08T07:18:32.230Z,8.24
2023-01-08T07:23:39.478Z,8.23
2023-01-08T07:28:46.687Z,8.23
2023-01-08T07:33:53.627Z,8.23
2023-01-08T07:39:00.785Z,8.23
2023-01-08T07:44:07.787Z,8.23
2023-01-08T07:49:14.918Z,8.24
2023-01-08T07:54:21.725Z,8.25
2023-01-08T07:59:28.666Z,8.24
2023-01-08T08:04:35.559Z,8.26
2023-01-08T08:09:42.546Z,8.25
2023-01-08T08:14:49.433Z,8.26
2023-01-08T08:19:56.428Z,8.25
2023-01-08T08:25:03.315Z,8.25
2023-01-08T08:30:11.351Z,8.25
2023-01-08T08:35:18.395Z,8.26
2023-01-08T08:40:25.695Z,8.24
2023-01-08T08:45:32.733Z,8.25
2023-01-08T08:50:40.215Z,8.25
2023-01-08T08:55:47.690Z,8.25
2023-01-08T09:00:55.029Z,8.24
2023-01-08T09:06:02.426Z,8.24
2023-01-08T09:11:09.707Z,8.24
2023-01-08T09:16:16.997Z,8.25
2023-01-08T09:21:24.045Z,8.26
2023-01-08T09:26:31.147Z,8.27
2023-01-08T09:31:37.932Z,8.26
2023-01-08T09:36:45.134Z,8.27
2023-01-08T09:41:52.628Z,8.27
2023-01-08T09:46:59.933Z,8.26
2023-01-08T09:52:07.150Z,8.26
2023-01-08T09:57:15.370Z,8.27
2023-01-08T10:02:23.364Z,8.27
2023-01-08T10:07:31.656Z,8.27
2023-01-08T10:12:38.427Z,8.26
2023-01-08T10:17:48.142Z,8.26
2023-01-08T10:22:55.529Z,8.26
2023-01-08T10:28:03.282Z,8.27
2023-01-08T10:33:13.537Z,8.26
2023-01-08T10:38:28.596Z,8.27
2023-01-08T10:43:36.692Z,8.28
2023-01-08T10:48:49.130Z,8.27
2023-01-08T10:53:56.507Z,8.28
2023-01-08T10:59:03.644Z,8.29
2023-01-08T11:04:23.337Z,8.28
2023-01-08T11:09:31.888Z,8.29
2023-01-08T11:14:40.356Z,8.29
2023-01-08T11:19:47.428Z,8.28
2023-01-08T11:24:55.456Z,8.27
2023-01-08T11:30:07.875Z,8.27
2023-01-08T11:35:24.451Z,8.28
2023-01-08T11:40:35.797Z,8.29
2023-01-08T11:45:52.871Z,8.30
2023-01-08T11:51:09.640Z,8.29
2023-01-08T11:56:22.594Z,8.29
2023-01-08T12:01:37.001Z,8.31
2023-01-08T12:06:49.851Z,8.31
2023-01-08T12:12:02.447Z,8.30
2023-01-08T12:17:23.509Z,8.30
2023-01-08T12:22:40.694Z,8.31
2023-01-08T12:27:57.623Z,8.31
2023-01-08T12:33:06.775Z,8.30
2023-01-08T12:38:15.516Z,8.29
2023-01-08T12:43:24.727Z,8.27
2023-01-08T12:48:32.917Z,8.28
2023-01-08T12:53:43.459Z,8.27
2023-01-08T12:59:07.412Z,8.28
2023-01-08T13:04:14.634Z,8.27
2023-01-08T13:09:24.214Z,8.24
2023-01-08T13:14:42.312Z,8.23
2023-01-08T13:19:54.619Z,8.25
2023-01-08T13:25:29.492Z,8.24
2023-01-08T13:30:38.976Z,8.26
2023-01-08T13:35:46.148Z,8.23
2023-01-08T13:40:57.018Z,8.23
2023-01-08T13:46:16.221Z,8.23
2023-01-08T13:51:42.078Z,8.24
2023-01-08T13:56:51.771Z,8.23
2023-01-08T14:02:01.867Z,8.22
2023-01-08T14:07:12.852Z,8.21
2023-01-08T14:12:22.542Z,8.22
2023-01-08T14:17:31.448Z,8.21
2023-01-08T14:22:38.479Z,8.21
2023-01-08T14:27:56.219Z,8.19
2023-01-08T14:33:03.646Z,8.20
2023-01-08T14:38:15.711Z,8.19
2023-01-08T14:43:23.156Z,8.19
2023-01-08T14:48:33.832Z,8.18
2023-01-08T14:53:43.956Z,8.17
2023-01-08T14:58:51.308Z,8.18
2023-01-08T15:04:08.568Z,8.16
2023-01-08T15:09:23.939Z,8.16
2023-01-08T15:14:31.302Z,8.17
2023-01-08T15:19:41.707Z,8.16
2023-01-08T15:24:54.947Z,8.17
2023-01-08T15:30:03.971Z,8.16
2023-01-08T15:35:17.204Z,8.16
2023-01-08T15:40:24.238Z,8.15
2023-01-08T15:45:32.833Z,8.15
2023-01-08T15:50:41.239Z,8.15
2023-01-08T15:55:48.343Z,8.16
2023-01-08T16:00:55.823Z,8.16
2023-01-08T16:06:03.286Z,8.15
2023-01-08T16:11:11.153Z,8.15
2023-01-08T16:16:18.642Z,8.14
2023-01-08T16:21:25.796Z,8.14
2023-01-08T16:26:32.977Z,8.14
2023-01-08T16:31:40.262Z,8.12
2023-01-08T16:36:47.626Z,8.12
2023-01-08T16:41:54.516Z,8.12
2023-01-08T16:47:01.799Z,8.11
2023-01-08T16:52:09.701Z,8.11
2023-01-08T16:57:16.866Z,8.10
2023-01-08T17:02:24.567Z,8.11
2023-01-08T17:07:31.664Z,8.10
2023-01-08T17:12:38.596Z,8.11
2023-01-08T17:17:45.570Z,8.09
2023-01-08T17:22:52.557Z,8.10
2023-01-08T17:27:59.936Z,8.09
2023-01-08T17:33:06.947Z,8.08
2023-01-08T17:38:13.776Z,8.08
2023-01-08T17:43:20.547Z,8.07
2023-01-08T17:48:27.371Z,8.07
2023-01-08T17:53:34.387Z,8.07
2023-01-08T17:58:41.297Z,8.07
2023-01-08T18:03:48.634Z,8.07
2023-01-08T18:08:55.739Z,8.06
2023-01-08T18:14:03.700Z,8.06
2023-01-08T18:19:10.797Z,8.06
2023-01-08T18:24:17.709Z,8.06
2023-01-08T18:29:24.687Z,8.06
2023-01-08T18:34:31.619Z,8.06
2023-01-08T18:39:38.387Z,8.05
2023-01-08T18:44:45.178Z,8.05
2023-01-08T18:49:53.539Z,8.05
2023-01-08T18:55:00.776Z,8.05
2023-01-08T19:00:08.978Z,8.05
2023-01-08T19:05:16.143Z,8.04
2023-01-08T19:10:23.607Z,8.05
2023-01-08T19:15:30.658Z,8.06
2023-01-08T19:20:37.940Z,8.04
2023-01-08T19:25:44.958Z,8.03
2023-01-08T19:30:57.442Z,8.03
2023-01-08T19:36:08.988Z,8.03
2023-01-08T19:41:33.805Z,8.03
2023-01-08T19:46:40.665Z,8.02
2023-01-08T19:51:47.617Z,8.02
2023-01-08T19:56:55.267Z,8.03
2023-01-08T20:02:02.212Z,8.02
2023-01-08T20:07:09.324Z,8.02
2023-01-08T20:12:16.209Z,8.02
2023-01-08T20:17:25.496Z,8.02
2023-01-08T20:22:32.410Z,8.02
2023-01-08T20:27:39.506Z,8.02
2023-01-08T20:32:46.666Z,8.01
2023-01-08T20:37:53.798Z,8.02
2023-01-08T20:43:00.828Z,8.01
2023-01-08T20:48:08.379Z,8.01
2023-01-08T20:53:15.531Z,8.01
2023-01-08T20:58:22.468Z,8.01
2023-01-08T21:03:29.348Z,8.00
2023-01-08T21:08:36.396Z,8.00
2023-01-08T21:13:43.769Z,8.00
2023-01-08T21:18:51.060Z,8.00
2023-01-08T21:23:58.236Z,7.99
2023-01-08T21:29:06.620Z,7.99
2023-01-08T21:34:14.296Z,8.00
2023-01-08T21:39:21.158Z,7.99
2023-01-08T21:44:46.073Z,7.98
2023-01-08T21:49:53.236Z,7.98
2023-01-08T21:55:00.181Z,7.98
2023-01-08T22:00:08.048Z,7.98
2023-01-08T22:05:15.360Z,7.98
2023-01-08T22:10:22.456Z,7.98
2023-01-08T22:15:29.846Z,7.97
2023-01-08T22:20:37.040Z,7.98
2023-01-08T22:25:43.959Z,7.98
2023-01-08T22:30:50.907Z,7.98
2023-01-08T22:35:58.077Z,7.98
2023-01-08T22:41:05.658Z,7.97
2023-01-08T22:46:15.257Z,7.96
2023-01-08T22:51:22.589Z,7.96
2023-01-08T22:56:29.922Z,7.96
2023-01-08T23:01:36.940Z,7.96
2023-01-08T23:06:43.868Z,7.96
2023-01-08T23:11:50.830Z,7.95
2023-01-08T23:16:58.135Z,7.95
2023-01-08T23:22:05.309Z,7.95
2023-01-08T23:27:12.546Z,7.95
2023-01-08T23:32:19.623Z,7.95
2023-01-08T23:37:26.467Z,7.95
2023-01-08T23:42:33.512Z,7.94
2023-01-08T23:47:40.139Z,7.94
2023-01-08T23:52:46.927Z,7.94
2023-01-08T23:57:53.726Z,7.94
